createdAt,value
2023-11-04T00:02:30.940Z,99032.56
2023-11-04T00:05:03.295Z,99028.50
2023-11-04T00:07:36.456Z,99008.95
2023-11-04T00:10:09.846Z,98999.27
2023-11-04T00:12:42.537Z,98989.09
2023-11-04T00:15:15.277Z,98980.77
2023-11-04T00:17:47.835Z,98975.83
2023-11-04T00:20:21.324Z,98975.66
2023-11-04T00:22:53.829Z,98969.20
2023-11-04T00:25:26.160Z,98935.23
2023-11-04T00:27:59.016Z,98934.23
2023-11-04T00:30:31.855Z,98939.13
2023-11-04T00:33:04.595Z,98922.00
2023-11-04T00:35:36.908Z,98933.19
2023-11-04T00:38:10.212Z,98932.34
2023-11-04T00:40:44.326Z,98938.30
2023-11-04T00:43:17.030Z,98927.26
2023-11-04T00:45:49.543Z,98947.47
2023-11-04T00:48:22.050Z,98934.05
2023-11-04T00:50:54.546Z,98947.11
2023-11-04T00:53:26.987Z,98956.80
2023-11-04T00:55:59.739Z,98957.83
2023-11-04T00:58:32.154Z,98962.61
2023-11-04T01:01:04.688Z,98952.73
2023-11-04T01:03:37.641Z,98957.33
2023-11-04T01:06:10.043Z,98959.88
2023-11-04T01:08:42.386Z,98961.05
2023-11-04T01:11:15.029Z,98956.98
2023-11-04T01:13:48.329Z,98944.75
2023-11-04T01:16:20.893Z,98934.70
2023-11-04T01:18:53.328Z,98933.17
2023-11-04T01:21:25.995Z,98924.34
2023-11-04T01:23:58.506Z,98922.31
2023-11-04T01:26:32.173Z,98931.63
2023-11-04T01:29:04.727Z,98944.03
2023-11-04T01:31:37.312Z,98951.48
2023-11-04T01:34:11.641Z,98948.77
2023-11-04T01:36:44.039Z,98957.28
2023-11-04T01:39:16.432Z,98994.13
2023-11-04T01:41:48.998Z,98988.34
2023-11-04T01:44:21.532Z,98975.08
2023-11-04T01:46:53.902Z,98987.31
2023-11-04T01:49:27.425Z,98962.67
2023-11-04T01:52:00.232Z,98952.66
2023-11-04T01:54:32.825Z,98967.44
2023-11-04T01:57:05.459Z,98965.72
2023-11-04T01:59:37.782Z,98963.00
2023-11-04T02:02:11.965Z,98962.33
2023-11-04T02:04:44.744Z,98980.17
2023-11-04T02:07:17.153Z,98998.88
2023-11-04T02:09:49.599Z,99003.10
2023-11-04T02:12:24.321Z,98999.53
2023-11-04T02:14:56.857Z,99013.81
2023-11-04T02:17:29.382Z,99001.72
2023-11-04T02:20:04.133Z,99016.00
2023-11-04T02:22:36.989Z,99005.81
2023-11-04T02:25:09.872Z,98999.67
2023-11-04T02:27:47.575Z,98979.78
2023-11-04T02:30:20.136Z,98980.61
2023-11-04T02:32:52.865Z,98974.34
2023-11-04T02:35:26.889Z,98980.61
2023-11-04T02:37:59.257Z,98971.09
2023-11-04T02:40:32.010Z,98990.13
2023-11-04T02:43:04.466Z,99006.80
2023-11-04T02:45:38.003Z,98998.14
2023-11-04T02:48:10.772Z,98984.36
2023-11-04T02:50:43.143Z,99008.84
2023-11-04T02:53:15.600Z,99020.75
2023-11-04T02:55:48.150Z,99006.12
2023-11-04T02:58:20.699Z,98998.98
2023-11-04T03:00:53.608Z,98998.30
2023-11-04T03:03:26.389Z,98986.39
2023-11-04T03:05:59.301Z,98992.16
2023-11-04T03:08:31.739Z,98993.66
2023-11-04T03:11:04.213Z,98992.30
2023-11-04T03:13:36.897Z,98984.85
2023-11-04T03:16:10.110Z,98987.04
2023-11-04T03:18:42.600Z,98986.71
2023-11-04T03:21:15.025Z,98985.00
2023-11-04T03:23:48.650Z,98973.95
2023-11-04T03:26:21.364Z,98964.43
2023-11-04T03:28:54.263Z,98974.27
2023-11-04T03:31:26.764Z,98978.89
2023-11-04T03:33:59.722Z,98971.37
2023-11-04T03:36:32.389Z,98973.09
2023-11-04T03:39:05.044Z,98963.58
2023-11-04T03:41:37.438Z,98972.06
2023-11-04T03:44:10.511Z,98964.05
2023-11-04T03:46:42.931Z,98964.91
2023-11-04T03:49:15.563Z,98957.61
2023-11-04T03:51:48.132Z,98953.70
2023-11-04T03:54:20.605Z,98956.75
2023-11-04T03:56:53.055Z,98950.63
2023-11-04T03:59:25.365Z,98937.39
2023-11-04T04:01:58.085Z,98929.73
2023-11-04T04:04:30.604Z,98931.95
2023-11-04T04:07:03.120Z,98921.06
2023-11-04T04:09:35.570Z,98916.98
2023-11-04T04:12:08.798Z,98939.93
2023-11-04T04:14:43.831Z,98937.53
2023-11-04T04:17:19.574Z,98951.78
2023-11-04T04:19:51.900Z,98940.22
2023-11-04T04:22:25.361Z,98939.37
2023-11-04T04:24:57.737Z,98943.12
2023-11-04T04:27:30.195Z,98948.20
2023-11-04T04:30:02.709Z,98942.09
2023-11-04T04:32:36.000Z,98945.98
2023-11-04T04:35:09.249Z,98946.34
2023-11-04T04:37:41.905Z,98935.94
2023-11-04T04:40:14.925Z,98927.09
2023-11-04T04:42:47.536Z,98935.91
2023-11-04T04:45:21.502Z,98932.17
2023-11-04T04:47:54.095Z,98928.42
2023-11-04T04:50:26.711Z,98923.66
2023-11-04T04:52:59.117Z,98928.06
2023-11-04T04:55:31.887Z,98928.39
2023-11-04T04:58:04.290Z,98913.10
2023-11-04T05:00:37.229Z,98910.70
2023-11-04T05:03:10.251Z,98921.05
2023-11-04T05:05:42.746Z,98929.03
2023-11-04T05:08:15.269Z,98934.80
2023-11-04T05:10:47.760Z,98927.82
2023-11-04T05:13:20.313Z,98937.34
2023-11-04T05:15:53.046Z,98940.92
2023-11-04T05:18:25.917Z,98945.00
2023-11-04T05:20:58.586Z,98951.45
2023-11-04T05:23:32.529Z,98944.65
2023-11-04T05:26:05.217Z,99823.27
2023-11-04T05:28:37.725Z,98948.87
2023-11-04T05:31:12.117Z,98943.28
2023-11-04T05:33:44.096Z,98946.16
2023-11-04T05:36:18.047Z,98955.32
2023-11-04T05:38:50.880Z,98960.58
2023-11-04T05:41:23.469Z,98965.67
2023-11-04T05:43:56.035Z,98962.95
2023-11-04T05:46:29.201Z,98966.85
2023-11-04T05:49:01.797Z,98962.95
2023-11-04T05:51:34.488Z,98959.83
2023-11-04T05:54:07.001Z,98956.42
2023-11-04T05:56:39.762Z,98963.91
2023-11-04T05:59:12.368Z,98958.93
2023-11-04T06:01:44.865Z,98950.59
2023-11-04T06:04:17.606Z,98959.94
2023-11-04T06:06:50.251Z,98958.20
2023-11-04T06:09:22.603Z,98959.71
2023-11-04T06:11:55.053Z,98965.80
2023-11-04T06:14:28.089Z,98968.34
2023-11-04T06:17:00.489Z,98978.38
2023-11-04T06:19:33.402Z,98984.14
2023-11-04T06:22:06.485Z,98973.92
2023-11-04T06:24:42.360Z,98974.25
2023-11-04T06:27:14.830Z,98973.06
2023-11-04T06:29:47.520Z,98996.08
2023-11-04T06:32:19.963Z,98986.36
2023-11-04T06:34:53.159Z,98973.06
2023-11-04T06:37:25.958Z,98965.39
2023-11-04T06:39:59.337Z,98968.89
2023-11-04T06:42:31.764Z,98968.39
2023-11-04T06:45:05.720Z,98960.71
2023-11-04T06:47:39.050Z,98958.45
2023-11-04T06:50:11.670Z,98947.05
2023-11-04T06:52:44.791Z,98952.82
2023-11-04T06:55:17.295Z,98961.53
2023-11-04T06:57:51.602Z,98961.31
2023-11-04T07:00:25.126Z,98949.59
2023-11-04T07:02:57.673Z,98945.50
2023-11-04T07:05:30.618Z,98951.27
2023-11-04T07:08:03.595Z,98959.45
2023-11-04T07:10:37.806Z,98955.86
2023-11-04T07:13:12.701Z,98957.05
2023-11-04T07:15:47.219Z,98956.72
2023-11-04T07:18:20.946Z,98951.45
2023-11-04T07:20:53.546Z,98950.77
2023-11-04T07:23:26.117Z,98956.72
2023-11-04T07:25:58.677Z,98954.72
2023-11-04T07:28:32.695Z,98946.86
2023-11-04T07:31:07.214Z,98946.00
2023-11-04T07:33:39.889Z,98955.68
2023-11-04T07:36:13.954Z,98948.19
2023-11-04T07:38:46.510Z,98940.69
2023-11-04T07:41:19.081Z,98946.95
2023-11-04T07:43:51.634Z,98943.22
2023-11-04T07:46:24.802Z,98961.07
2023-11-04T07:48:58.508Z,98947.45
2023-11-04T07:51:31.029Z,98943.31
2023-11-04T07:54:05.143Z,98940.89
2023-11-04T07:56:37.667Z,98932.35
2023-11-04T07:59:11.358Z,98918.19
2023-11-04T08:01:43.938Z,98930.62
2023-11-04T08:04:16.611Z,98923.08
2023-11-04T08:06:49.245Z,98936.02
2023-11-04T08:09:21.990Z,98932.11
2023-11-04T08:11:54.577Z,98936.34
2023-11-04T08:14:27.010Z,98920.66
2023-11-04T08:16:59.502Z,98928.97
2023-11-04T08:19:32.122Z,98925.02
2023-11-04T08:22:04.977Z,98932.50
2023-11-04T08:24:38.943Z,98934.50
2023-11-04T08:27:11.493Z,98948.30
2023-11-04T08:29:43.822Z,98949.29
2023-11-04T08:32:16.313Z,98949.11
2023-11-04T08:34:48.942Z,98933.70
2023-11-04T08:37:23.039Z,98927.83
2023-11-04T08:39:56.721Z,98927.83
2023-11-04T08:42:29.394Z,98924.73
2023-11-04T08:45:01.984Z,98921.63
2023-11-04T08:47:35.172Z,98914.43
2023-11-04T08:50:08.601Z,98908.98
2023-11-04T08:52:41.835Z,98924.67
2023-11-04T08:55:14.649Z,98926.35
2023-11-04T08:57:49.362Z,98925.98
2023-11-04T09:00:21.285Z,98917.09
2023-11-04T09:02:54.349Z,98917.73
2023-11-04T09:05:33.500Z,98900.92
2023-11-04T09:08:02.871Z,98898.01
2023-11-04T09:10:35.377Z,98902.73
2023-11-04T09:13:08.010Z,98906.13
2023-11-04T09:15:40.513Z,98895.34
2023-11-04T09:18:13.111Z,98897.19
2023-11-04T09:20:51.080Z,98893.22
2023-11-04T09:23:25.381Z,98884.15
2023-11-04T09:25:57.783Z,98881.05
2023-11-04T09:28:30.169Z,98877.58
2023-11-04T09:31:02.720Z,98875.05
2023-11-04T09:33:37.282Z,98865.56
2023-11-04T09:36:12.057Z,98871.14
2023-11-04T09:38:43.756Z,98866.06
2023-11-04T09:41:16.791Z,98858.30
2023-11-04T09:43:49.209Z,98858.61
2023-11-04T09:46:23.826Z,98860.10
2023-11-04T09:48:57.696Z,98849.13
2023-11-04T09:51:42.013Z,98848.73
2023-11-04T09:54:14.959Z,98842.20
2023-11-04T09:56:47.864Z,98838.89
2023-11-04T09:59:20.246Z,98834.26
2023-11-04T10:01:53.451Z,98822.95
2023-11-04T10:04:25.933Z,98810.80
2023-11-04T10:06:58.771Z,98806.31
2023-11-04T10:09:33.685Z,98811.73
2023-11-04T10:12:07.333Z,98805.73
2023-11-04T10:14:39.886Z,98803.86
2023-11-04T10:17:12.867Z,98814.27
2023-11-04T10:19:46.374Z,98808.93
2023-11-04T10:22:19.126Z,98806.52
2023-11-04T10:24:51.708Z,98796.64
2023-11-04T10:27:24.408Z,98790.45
2023-11-04T10:29:57.076Z,98786.70
2023-11-04T10:32:38.294Z,98785.97
2023-11-04T10:35:13.658Z,98788.30
2023-11-04T10:37:49.942Z,98784.21
2023-11-04T10:40:23.140Z,98777.38
2023-11-04T10:43:16.955Z,98773.48
2023-11-04T10:45:59.066Z,98768.17
2023-11-04T10:48:57.514Z,98760.96
2023-11-04T10:51:41.407Z,98758.86
2023-11-04T10:54:23.982Z,98747.42
2023-11-04T10:57:04.654Z,98737.47
2023-11-04T10:59:44.600Z,98734.20
2023-11-04T11:02:17.083Z,98738.95
2023-11-04T11:04:51.803Z,98745.08
2023-11-04T11:07:24.326Z,98751.91
2023-11-04T11:09:57.427Z,98751.91
2023-11-04T11:12:31.248Z,98738.88
2023-11-04T11:15:06.208Z,98736.14
2023-11-04T11:17:38.754Z,98740.78
2023-11-04T11:20:37.550Z,98736.80
2023-11-04T11:23:15.016Z,98736.91
2023-11-04T11:25:48.061Z,98731.56
2023-11-04T11:28:24.980Z,98732.03
2023-11-04T11:30:59.905Z,98724.74
2023-11-04T11:33:32.760Z,98720.22
2023-11-04T11:36:12.299Z,98705.59
2023-11-04T11:38:47.455Z,98704.73
2023-11-04T11:41:20.080Z,98701.30
2023-11-04T11:43:52.932Z,98700.98
2023-11-04T11:46:25.474Z,98696.46
2023-11-04T11:48:58.259Z,98688.92
2023-11-04T11:51:30.948Z,98684.72
2023-11-04T11:54:03.793Z,98687.33
2023-11-04T11:56:39.237Z,98689.63
2023-11-04T11:59:10.599Z,98684.94
2023-11-04T12:01:43.591Z,98676.89
2023-11-04T12:04:16.018Z,98678.88
2023-11-04T12:06:54.541Z,98665.13
2023-11-04T12:09:27.140Z,98667.86
2023-11-04T12:11:59.814Z,98669.88
2023-11-04T12:14:33.781Z,98662.34
2023-11-04T12:17:07.919Z,98655.91
2023-11-04T12:19:40.466Z,98654.55
2023-11-04T12:22:13.531Z,98649.09
2023-11-04T12:24:46.107Z,98647.06
2023-11-04T12:27:18.633Z,98651.48
2023-11-04T12:29:58.250Z,98644.14
2023-11-04T12:32:30.882Z,98652.13
2023-11-04T12:35:03.611Z,98641.52
2023-11-04T12:37:36.597Z,98648.80
2023-11-04T12:40:13.747Z,98644.53
2023-11-04T12:42:47.808Z,98635.28
2023-11-04T12:45:22.452Z,98629.61
2023-11-04T12:47:55.403Z,98637.61
2023-11-04T12:50:27.993Z,98629.41
2023-11-04T12:53:04.883Z,98629.00
2023-11-04T12:55:37.943Z,98632.05
2023-11-04T12:58:11.403Z,98629.66
2023-11-04T13:00:45.490Z,98637.00
2023-11-04T13:03:18.371Z,98632.50
2023-11-04T13:05:51.024Z,98630.19
2023-11-04T13:08:23.539Z,98625.47
2023-11-04T13:10:57.804Z,98622.73
2023-11-04T13:13:30.158Z,98628.30
2023-11-04T13:16:03.317Z,98624.86
2023-11-04T13:18:36.551Z,98616.86
2023-11-04T13:21:10.118Z,98604.47
2023-11-04T13:23:42.656Z,98602.05
2023-11-04T13:26:15.312Z,98606.14
2023-11-04T13:28:48.221Z,98593.02
2023-11-04T13:31:20.909Z,98590.50
2023-11-04T13:33:54.385Z,98594.59
2023-11-04T13:36:29.447Z,98592.17
2023-11-04T13:39:10.268Z,98598.35
2023-11-04T13:41:39.559Z,98599.41
2023-11-04T13:44:13.786Z,98586.60
2023-11-04T13:46:48.396Z,98577.86
2023-11-04T13:49:21.131Z,98578.20
2023-11-04T13:51:54.191Z,98578.20
2023-11-04T13:54:28.413Z,98580.73
2023-11-04T13:57:00.946Z,98573.35
2023-11-04T13:59:33.730Z,98561.05
2023-11-04T14:02:06.319Z,98556.95
2023-11-04T14:04:38.976Z,98539.09
2023-11-04T14:07:11.695Z,98534.48
2023-11-04T14:09:44.585Z,98535.84
2023-11-04T14:12:17.161Z,98527.65
2023-11-04T14:14:49.970Z,98517.23
2023-11-04T14:17:22.544Z,98501.34
2023-11-04T14:19:54.973Z,98505.45
2023-11-04T14:22:27.342Z,98502.92
2023-11-04T14:25:00.163Z,98503.47
2023-11-04T14:27:33.948Z,98508.08
2023-11-04T14:30:08.579Z,98519.86
2023-11-04T14:32:41.358Z,98514.59
2023-11-04T14:35:16.765Z,98508.59
2023-11-04T14:37:49.350Z,98496.84
2023-11-04T14:40:21.902Z,98482.02
2023-11-04T14:42:54.391Z,98468.26
2023-11-04T14:45:29.113Z,98459.41
2023-11-04T14:48:02.367Z,98478.33
2023-11-04T14:50:36.984Z,98478.98
2023-11-04T14:53:09.582Z,98476.86
2023-11-04T14:55:43.524Z,98477.72
2023-11-04T14:58:16.358Z,98478.88
2023-11-04T15:00:48.977Z,98487.38
2023-11-04T15:03:22.746Z,98475.39
2023-11-04T15:05:55.867Z,98468.56
2023-11-04T15:08:29.294Z,98473.30
2023-11-04T15:11:01.871Z,98472.66
2023-11-04T15:13:34.649Z,98465.21
2023-11-04T15:16:08.235Z,98453.95
2023-11-04T15:18:40.931Z,98463.84
2023-11-04T15:21:14.666Z,98467.40
2023-11-04T15:23:47.224Z,98464.66
2023-11-04T15:26:19.964Z,98469.92
2023-11-04T15:28:52.833Z,98468.90
2023-11-04T15:31:25.449Z,98464.39
2023-11-04T15:33:57.894Z,98466.57
2023-11-04T15:36:30.300Z,98466.06
2023-11-04T15:39:02.753Z,98452.91
2023-11-04T15:41:40.323Z,98451.44
2023-11-04T15:44:13.178Z,98445.98
2023-11-04T15:46:45.876Z,98445.33
2023-11-04T15:49:19.095Z,98427.78
2023-11-04T15:51:51.523Z,98422.31
2023-11-04T15:54:24.917Z,98432.01
2023-11-04T15:56:57.795Z,98411.41
2023-11-04T15:59:30.359Z,98417.81
2023-11-04T16:02:02.933Z,98410.57
2023-11-04T16:04:35.702Z,98409.81
2023-11-04T16:07:08.208Z,98406.47
2023-11-04T16:09:41.828Z,98389.73
2023-11-04T16:12:14.306Z,98373.03
2023-11-04T16:14:47.013Z,98370.09
2023-11-04T16:17:19.405Z,98369.23
2023-11-04T16:19:52.103Z,98365.06
2023-11-04T16:22:25.127Z,98369.77
2023-11-04T16:24:58.448Z,98361.15
2023-11-04T16:27:30.859Z,98347.81
2023-11-04T16:30:04.477Z,98340.53
2023-11-04T16:32:37.147Z,98340.31
2023-11-04T16:35:10.234Z,98331.52
2023-11-04T16:37:42.714Z,98335.91
2023-11-04T16:40:16.013Z,98328.36
2023-11-04T16:42:50.394Z,98327.08
2023-11-04T16:45:34.345Z,98324.44
2023-11-04T16:48:07.153Z,98316.87
2023-11-04T16:50:40.832Z,98325.16
2023-11-04T16:53:13.730Z,98326.41
2023-11-04T16:55:47.044Z,98316.75
2023-11-04T16:58:20.349Z,98316.63
2023-11-04T17:00:52.923Z,98312.10
2023-11-04T17:03:25.768Z,98307.23
2023-11-04T17:06:00.215Z,98297.36
2023-11-04T17:08:33.498Z,98290.02
2023-11-04T17:11:06.015Z,98281.26
2023-11-04T17:13:41.156Z,98274.12
2023-11-04T17:16:15.357Z,98269.07
2023-11-04T17:18:47.900Z,98263.39
2023-11-04T17:21:20.285Z,98253.05
2023-11-04T17:23:53.118Z,98235.58
2023-11-04T17:26:25.601Z,98232.84
2023-11-04T17:28:59.137Z,98229.07
2023-11-04T17:31:33.537Z,98224.42
2023-11-04T17:34:06.218Z,98210.23
2023-11-04T17:36:38.829Z,98202.66
2023-11-04T17:39:11.611Z,98204.33
2023-11-04T17:41:44.152Z,98199.56
2023-11-04T17:44:16.704Z,98204.05
2023-11-04T17:46:49.108Z,98204.17
2023-11-04T17:49:21.780Z,98208.35
2023-11-04T17:51:55.985Z,98204.88
2023-11-04T17:54:28.424Z,98193.50
2023-11-04T17:57:04.565Z,98207.78
2023-11-04T17:59:35.817Z,98196.10
2023-11-04T18:02:11.607Z,98196.44
2023-11-04T18:04:44.789Z,98196.52
2023-11-04T18:07:17.995Z,98187.05
2023-11-04T18:09:50.447Z,98170.63
2023-11-04T18:12:23.212Z,98162.72
2023-11-04T18:14:55.654Z,98158.62
2023-11-04T18:17:29.029Z,98155.88
2023-11-04T18:20:01.690Z,98144.64
2023-11-04T18:22:34.758Z,98141.57
2023-11-04T18:25:08.409Z,98136.43
2023-11-04T18:27:51.605Z,98134.84
2023-11-04T18:30:15.739Z,98121.98
2023-11-04T18:32:51.652Z,98115.47
2023-11-04T18:35:25.248Z,98123.53
2023-11-04T18:37:57.776Z,98123.83
2023-11-04T18:40:31.194Z,98122.31
2023-11-04T18:43:04.955Z,98121.88
2023-11-04T18:45:37.466Z,98109.59
2023-11-04T18:48:10.121Z,98084.20
2023-11-04T18:50:43.448Z,98079.35
2023-11-04T18:53:17.051Z,98068.41
2023-11-04T18:55:50.237Z,98046.66
2023-11-04T18:58:23.924Z,98048.77
2023-11-04T19:00:57.100Z,98028.23
2023-11-04T19:03:30.123Z,98016.99
2023-11-04T19:06:02.841Z,98020.80
2023-11-04T19:08:35.510Z,97979.13
2023-11-04T19:11:10.052Z,97981.01
2023-11-04T19:13:42.876Z,97976.61
2023-11-04T19:16:15.431Z,97960.34
2023-11-04T19:18:48.387Z,97952.36
2023-11-04T19:21:21.360Z,97961.61
2023-11-04T19:23:53.888Z,97960.24
2023-11-04T19:26:28.199Z,97957.83
2023-11-04T19:29:02.383Z,97943.07
2023-11-04T19:31:35.228Z,97940.79
2023-11-04T19:34:08.094Z,97932.80
2023-11-04T19:36:40.610Z,97916.61
2023-11-04T19:39:13.266Z,97912.50
2023-11-04T19:41:45.772Z,97905.98
2023-11-04T19:44:18.386Z,97894.49
2023-11-04T19:46:51.646Z,97878.92
2023-11-04T19:49:25.361Z,97918.05
2023-11-04T19:51:57.827Z,97947.92
2023-11-04T19:54:30.468Z,97918.89
2023-11-04T19:57:03.661Z,97909.02
2023-11-04T19:59:37.764Z,97907.03
2023-11-04T20:02:10.187Z,97904.84
2023-11-04T20:04:43.739Z,97900.97
2023-11-04T20:07:16.490Z,97892.89
2023-11-04T20:09:49.479Z,97881.03
2023-11-04T20:12:22.898Z,97865.09
2023-11-04T20:14:56.262Z,97863.73
2023-11-04T20:17:28.975Z,97845.39
2023-11-04T20:20:01.540Z,97837.73
2023-11-04T20:22:34.165Z,97828.16
2023-11-04T20:25:07.345Z,97824.88
2023-11-04T20:27:40.270Z,97828.52
2023-11-04T20:30:13.266Z,97811.88
2023-11-04T20:32:47.171Z,97815.98
2023-11-04T20:35:21.108Z,97786.49
2023-11-04T20:37:55.276Z,97782.97
2023-11-04T20:40:27.984Z,97776.75
2023-11-04T20:43:01.427Z,97777.59
2023-11-04T20:45:35.092Z,97783.88
2023-11-04T20:48:07.757Z,97771.56
2023-11-04T20:50:41.486Z,97775.73
2023-11-04T20:53:14.050Z,97791.17
2023-11-04T20:55:47.340Z,97793.45
2023-11-04T20:58:19.920Z,97793.28
2023-11-04T21:00:53.764Z,97787.58
2023-11-04T21:03:27.631Z,97796.92
2023-11-04T21:06:00.198Z,97798.91
2023-11-04T21:08:36.008Z,97810.67
2023-11-04T21:11:08.565Z,97819.27
2023-11-04T21:13:41.170Z,97825.36
2023-11-04T21:16:13.705Z,97819.39
2023-11-04T21:18:46.903Z,97833.70
2023-11-04T21:21:21.076Z,97827.47
2023-11-04T21:23:54.158Z,97841.22
2023-11-04T21:26:26.761Z,97842.36
2023-11-04T21:28:59.648Z,97885.77
2023-11-04T21:31:32.178Z,97865.63
2023-11-04T21:34:04.896Z,97873.67
2023-11-04T21:36:38.036Z,97855.69
2023-11-04T21:39:12.105Z,97859.05
2023-11-04T21:41:45.498Z,97856.89
2023-11-04T21:44:19.002Z,97858.64
2023-11-04T21:46:52.130Z,97864.18
2023-11-04T21:49:25.001Z,97865.93
2023-11-04T21:51:57.538Z,97875.81
2023-11-04T21:54:30.715Z,97845.50
2023-11-04T21:57:04.611Z,97863.98
2023-11-04T21:59:37.349Z,97865.67
2023-11-04T22:02:09.983Z,97874.19
2023-11-04T22:04:42.526Z,97843.81
2023-11-04T22:07:15.120Z,97852.97
2023-11-04T22:09:47.485Z,97840.08
2023-11-04T22:12:20.170Z,97854.63
2023-11-04T22:14:53.255Z,97863.98
2023-11-04T22:17:26.771Z,97865.88
2023-11-04T22:19:59.499Z,97858.22
2023-11-04T22:22:32.911Z,97869.47
2023-11-04T22:25:05.863Z,97853.03
2023-11-04T22:27:38.677Z,97851.89
2023-11-04T22:30:12.928Z,97868.15
2023-11-04T22:32:45.305Z,97855.19
2023-11-04T22:35:17.650Z,97830.91
2023-11-04T22:37:50.734Z,97836.27
2023-11-04T22:40:23.409Z,97819.45
2023-11-04T22:42:55.805Z,97813.06
2023-11-04T22:45:28.259Z,97813.30
2023-11-04T22:48:00.798Z,97801.53
2023-11-04T22:50:33.734Z,97802.11
2023-11-04T22:53:06.043Z,97796.11
2023-11-04T22:55:39.700Z,97790.63
2023-11-04T22:58:12.540Z,97795.26
2023-11-04T23:00:46.023Z,97784.07
2023-11-04T23:03:18.590Z,97777.89
2023-11-04T23:05:51.348Z,97778.73
2023-11-04T23:08:24.016Z,97767.78
2023-11-04T23:10:57.267Z,97763.72
2023-11-04T23:13:29.694Z,97759.91
2023-11-04T23:16:02.209Z,97750.31
2023-11-04T23:18:35.003Z,97745.69
2023-11-04T23:21:08.852Z,97739.45
2023-11-04T23:23:41.216Z,97750.41
2023-11-04T23:26:13.791Z,97745.73
2023-11-04T23:28:46.121Z,97736.38
2023-11-04T23:31:18.740Z,97753.91
2023-11-04T23:33:51.602Z,97744.03
2023-11-04T23:36:24.301Z,97740.39
2023-11-04T23:38:56.736Z,97724.47
2023-11-04T23:41:29.266Z,97734.91
2023-11-04T23:44:01.807Z,97735.14
2023-11-04T23:46:34.445Z,97733.95
2023-11-04T23:49:06.900Z,97745.44
2023-11-04T23:51:39.313Z,97764.84
2023-11-04T23:54:11.677Z,97757.09
2023-11-04T23:56:44.300Z,97757.09
2023-11-04T23:59:16.645Z,97756.02
